createdAt,value
2018-01-12T00:02:00.186Z,2.90
2018-01-12T00:04:30.074Z,2.87
2018-01-12T00:06:59.839Z,3.30
2018-01-12T00:09:29.663Z,2.00
2018-01-12T00:11:59.476Z,2.87
2018-01-12T00:14:30.015Z,4.93
2018-01-12T00:17:00.372Z,4.47
2018-01-12T00:19:30.754Z,5.97
2018-01-12T00:22:01.190Z,2.40
2018-01-12T00:24:32.041Z,3.40
2018-01-12T00:27:02.217Z,3.87
2018-01-12T00:29:32.239Z,4.40
2018-01-12T00:32:02.745Z,4.00
2018-01-12T00:34:32.561Z,3.50
2018-01-12T00:37:03.155Z,3.40
2018-01-12T00:39:33.426Z,4.33
2018-01-12T00:42:04.008Z,3.40
2018-01-12T00:44:34.883Z,7.33
2018-01-12T00:47:04.684Z,6.80
2018-01-12T00:49:34.622Z,8.27
2018-01-12T00:52:04.678Z,5.60
2018-01-12T00:54:34.950Z,5.93
2018-01-12T00:57:06.667Z,8.00
2018-01-12T00:59:37.586Z,4.17
2018-01-12T01:02:07.317Z,5.00
2018-01-12T01:04:37.865Z,5.40
2018-01-12T01:07:07.583Z,3.80
2018-01-12T01:09:37.259Z,4.20
2018-01-12T01:12:08.343Z,4.40
2018-01-12T01:14:38.436Z,4.67
2018-01-12T01:17:08.345Z,4.13
2018-01-12T01:19:38.294Z,4.03
2018-01-12T01:22:08.179Z,3.80
2018-01-12T01:24:38.057Z,3.73
2018-01-12T01:27:08.715Z,3.63
2018-01-12T01:29:38.400Z,2.93
2018-01-12T01:32:09.390Z,3.13
2018-01-12T01:34:40.037Z,3.23
2018-01-12T01:37:09.811Z,7.00
2018-01-12T01:39:39.639Z,7.80
2018-01-12T01:42:09.570Z,7.90
2018-01-12T01:44:39.252Z,5.30
2018-01-12T01:47:09.486Z,4.87
2018-01-12T01:49:39.990Z,3.90
2018-01-12T01:52:09.755Z,4.40
2018-01-12T01:54:40.149Z,3.37
2018-01-12T01:57:09.822Z,4.93
2018-01-12T01:59:41.331Z,5.20
2018-01-12T02:02:12.772Z,4.63
2018-01-12T02:04:45.203Z,3.80
2018-01-12T02:07:16.191Z,3.83
2018-01-12T02:09:50.983Z,3.27
2018-01-12T02:12:21.875Z,3.40
2018-01-12T02:14:51.769Z,4.53
2018-01-12T02:17:22.633Z,4.10
2018-01-12T02:19:52.404Z,4.10
2018-01-12T02:22:21.980Z,3.70
2018-01-12T02:24:52.136Z,4.07
2018-01-12T02:27:22.207Z,3.87
2018-01-12T02:29:51.844Z,5.10
2018-01-12T02:32:21.609Z,3.27
2018-01-12T02:34:52.412Z,2.80
2018-01-12T02:37:22.243Z,2.90
2018-01-12T02:39:53.016Z,3.17
2018-01-12T02:42:22.704Z,2.90
2018-01-12T02:44:53.108Z,3.10
2018-01-12T02:47:23.494Z,3.73
2018-01-12T02:49:53.191Z,2.83
2018-01-12T02:52:23.210Z,3.57
2018-01-12T02:54:55.504Z,3.23
2018-01-12T02:57:26.704Z,3.67
2018-01-12T02:59:58.049Z,3.70
2018-01-12T03:02:29.956Z,4.47
2018-01-12T03:05:01.507Z,3.20
2018-01-12T03:07:33.269Z,3.00
2018-01-12T03:10:04.082Z,4.63
2018-01-12T03:12:37.721Z,3.13
2018-01-12T03:15:10.362Z,2.90
2018-01-12T03:17:40.949Z,4.67
2018-01-12T03:20:11.187Z,3.10
2018-01-12T03:22:41.114Z,3.87
2018-01-12T03:25:11.369Z,2.60
2018-01-12T03:27:40.726Z,2.87
2018-01-12T03:30:17.558Z,3.17
2018-01-12T03:32:50.967Z,3.90
2018-01-12T03:35:24.409Z,3.40
2018-01-12T03:38:02.501Z,3.43
2018-01-12T03:40:32.879Z,3.63
2018-01-12T03:43:02.731Z,3.33
2018-01-12T03:45:32.834Z,2.70
2018-01-12T03:48:02.653Z,2.47
2018-01-12T03:50:32.688Z,2.20
2018-01-12T03:53:02.551Z,2.43
2018-01-12T03:55:32.619Z,3.57
2018-01-12T03:58:01.919Z,3.33
2018-01-12T04:00:32.767Z,3.53
2018-01-12T04:03:04.606Z,5.13
2018-01-12T04:05:34.363Z,4.50
2018-01-12T04:08:05.318Z,5.63
2018-01-12T04:10:36.565Z,5.50
2018-01-12T04:13:06.929Z,4.47
2018-01-12T04:15:43.265Z,5.43
2018-01-12T04:18:13.622Z,2.90
2018-01-12T04:20:43.343Z,2.70
2018-01-12T04:23:12.548Z,2.33
2018-01-12T04:25:43.552Z,2.90
2018-01-12T04:28:13.677Z,2.57
2018-01-12T04:30:43.418Z,2.23
2018-01-12T04:33:14.461Z,2.43
2018-01-12T04:35:45.991Z,3.03
2018-01-12T04:38:15.620Z,3.80
2018-01-12T04:40:46.096Z,2.37
2018-01-12T04:43:17.016Z,4.33
2018-01-12T04:45:46.345Z,4.20
2018-01-12T04:48:16.657Z,3.40
2018-01-12T04:50:47.428Z,3.63
2018-01-12T04:53:18.433Z,3.40
2018-01-12T04:55:48.199Z,2.70
2018-01-12T04:58:18.890Z,3.07
2018-01-12T05:00:49.134Z,4.00
2018-01-12T05:03:18.824Z,4.50
2018-01-12T05:05:50.367Z,4.63
2018-01-12T05:08:20.212Z,3.93
2018-01-12T05:10:50.105Z,2.47
2018-01-12T05:13:19.599Z,2.13
2018-01-12T05:15:50.470Z,2.80
2018-01-12T05:18:20.951Z,2.77
2018-01-12T05:20:50.751Z,2.03
2018-01-12T05:23:22.263Z,2.30
2018-01-12T05:25:52.764Z,2.40
2018-01-12T05:28:23.531Z,3.10
2018-01-12T05:30:54.013Z,2.00
2018-01-12T05:33:24.335Z,2.53
2018-01-12T05:35:53.842Z,2.70
2018-01-12T05:38:24.555Z,2.40
2018-01-12T05:40:54.377Z,2.40
2018-01-12T05:43:24.421Z,2.60
2018-01-12T05:45:53.829Z,1.90
2018-01-12T05:48:24.009Z,2.13
2018-01-12T05:50:56.089Z,1.80
2018-01-12T05:53:26.048Z,1.80
2018-01-12T05:55:56.526Z,1.20
2018-01-12T05:58:27.061Z,1.80
2018-01-12T06:01:08.416Z,2.10
2018-01-12T06:03:49.432Z,1.80
2018-01-12T06:06:22.714Z,1.90
2018-01-12T06:08:52.145Z,1.50
2018-01-12T06:11:22.256Z,1.40
2018-01-12T07:25:52.918Z,2.43
2018-01-12T07:28:22.959Z,1.70
2018-01-12T07:30:52.565Z,2.10
2018-01-12T07:33:22.526Z,2.37
2018-01-12T07:35:52.392Z,1.70
2018-01-12T07:38:22.638Z,1.87
2018-01-12T07:40:52.871Z,1.70
2018-01-12T07:43:22.629Z,1.60
2018-01-12T07:45:53.180Z,2.47
2018-01-12T07:48:22.912Z,2.43
2018-01-12T07:50:52.519Z,3.03
2018-01-12T07:53:22.484Z,2.90
2018-01-12T07:55:53.382Z,2.93
2018-01-12T07:58:23.414Z,2.93
2018-01-12T08:00:58.546Z,1.90
2018-01-12T08:03:28.430Z,3.00
2018-01-12T08:05:58.161Z,2.73
2018-01-12T08:08:27.769Z,2.70
2018-01-12T08:10:57.288Z,1.47
2018-01-12T08:13:26.965Z,2.30
2018-01-12T08:15:56.931Z,1.70
2018-01-12T08:18:26.525Z,1.50
2018-01-12T08:20:56.255Z,2.10
2018-01-12T08:23:25.968Z,2.83
2018-01-12T08:25:56.811Z,1.60
2018-01-12T08:28:26.943Z,1.80
2018-01-12T08:30:56.635Z,1.23
2018-01-12T08:33:27.043Z,2.17
2018-01-12T08:35:57.018Z,2.37
2018-01-12T08:38:26.346Z,1.17
2018-01-12T08:40:56.086Z,1.07
2018-01-12T08:43:26.730Z,2.10
2018-01-12T08:45:56.764Z,1.20
2018-01-12T08:48:26.334Z,3.30
2018-01-12T08:50:56.891Z,2.07
2018-01-12T08:53:27.433Z,6.20
2018-01-12T08:55:57.086Z,3.07
2018-01-12T08:58:26.574Z,5.20
2018-01-12T09:00:56.154Z,2.00
2018-01-12T09:03:26.745Z,3.33
2018-01-12T09:05:56.206Z,2.20
2018-01-12T09:08:25.783Z,1.87
2018-01-12T09:10:55.367Z,1.50
2018-01-12T09:13:35.840Z,1.43
2018-01-12T09:16:08.409Z,1.60
2018-01-12T09:18:50.012Z,1.70
2018-01-12T09:21:26.225Z,2.30
2018-01-12T09:23:56.998Z,1.43
2018-01-12T09:26:26.900Z,1.23
2018-01-12T09:28:56.467Z,1.53
2018-01-12T09:31:45.991Z,2.00
2018-01-12T09:34:26.798Z,1.30
2018-01-12T09:36:56.475Z,1.90
2018-01-12T09:39:49.493Z,1.77
2018-01-12T09:42:19.436Z,2.43
2018-01-12T09:44:49.166Z,2.83
2018-01-12T09:47:24.092Z,3.17
2018-01-12T09:49:53.952Z,1.50
2018-01-12T09:52:24.488Z,1.83
2018-01-12T09:54:55.303Z,1.60
2018-01-12T09:57:24.857Z,2.20
2018-01-12T10:00:01.668Z,1.90
2018-01-12T10:02:31.793Z,2.10
2018-01-12T10:05:01.466Z,2.87
2018-01-12T10:07:41.997Z,2.23
2018-01-12T10:10:11.767Z,2.50
2018-01-12T10:12:41.453Z,3.13
2018-01-12T10:15:11.555Z,2.47
2018-01-12T10:17:40.922Z,2.90
2018-01-12T10:20:17.267Z,3.00
2018-01-12T10:22:46.941Z,2.50
2018-01-12T10:25:16.432Z,3.03
2018-01-12T10:27:46.622Z,2.13
2018-01-12T10:30:25.190Z,3.67
2018-01-12T10:33:05.415Z,3.53
2018-01-12T10:35:35.327Z,2.73
2018-01-12T10:38:05.266Z,1.97
2018-01-12T10:40:55.969Z,2.50
2018-01-12T10:43:25.569Z,2.73
2018-01-12T10:46:06.167Z,2.40
2018-01-12T10:48:47.713Z,2.70
2018-01-12T10:51:22.374Z,2.80
2018-01-12T10:53:51.901Z,2.57
2018-01-12T10:56:21.514Z,2.87
2018-01-12T10:58:51.529Z,2.63
2018-01-12T11:01:22.780Z,2.20
2018-01-12T11:03:52.968Z,2.60
2018-01-12T11:06:22.408Z,2.50
2018-01-12T11:08:52.670Z,2.57
2018-01-12T11:11:22.822Z,2.80
2018-01-12T11:13:52.607Z,2.40
2018-01-12T11:16:22.727Z,2.63
2018-01-12T11:18:52.606Z,2.80
2018-01-12T11:21:22.439Z,2.17
2018-01-12T11:23:52.412Z,2.43
2018-01-12T11:26:22.136Z,2.87
2018-01-12T11:28:52.034Z,2.40
2018-01-12T11:31:22.421Z,2.77
2018-01-12T11:33:53.597Z,2.73
2018-01-12T11:36:23.707Z,2.30
2018-01-12T11:38:53.339Z,2.00
2018-01-12T11:41:22.926Z,2.30
2018-01-12T11:43:52.734Z,2.47
2018-01-12T11:46:23.012Z,2.23
2018-01-12T11:48:52.667Z,1.97
2018-01-12T11:51:22.493Z,2.77
2018-01-12T11:53:53.406Z,2.30
2018-01-12T11:56:23.358Z,2.70
2018-01-12T11:58:53.157Z,2.20
2018-01-12T12:01:23.725Z,2.07
2018-01-12T12:03:54.032Z,2.13
2018-01-12T12:06:23.811Z,3.10
2018-01-12T12:08:54.533Z,2.23
2018-01-12T12:11:25.429Z,2.07
2018-01-12T12:13:55.184Z,2.60
2018-01-12T12:16:25.034Z,2.30
2018-01-12T12:18:54.553Z,2.90
2018-01-12T12:21:24.220Z,2.10
2018-01-12T12:23:54.401Z,2.10
2018-01-12T12:26:23.994Z,1.87
2018-01-12T12:28:54.220Z,1.90
2018-01-12T12:31:24.478Z,2.10
2018-01-12T12:33:53.869Z,2.03
2018-01-12T12:36:23.779Z,2.43
2018-01-12T12:38:53.028Z,2.40
2018-01-12T12:41:22.865Z,1.73
2018-01-12T12:43:53.841Z,1.87
2018-01-12T12:46:23.587Z,1.43
2018-01-12T12:48:52.914Z,1.80
2018-01-12T12:51:23.072Z,1.73
2018-01-12T12:53:53.056Z,2.20
2018-01-12T12:56:23.329Z,1.60
2018-01-12T12:58:53.179Z,1.60
2018-01-12T13:01:22.917Z,1.57
2018-01-12T13:03:53.313Z,1.87
2018-01-12T13:06:23.061Z,1.80
2018-01-12T13:08:52.697Z,1.50
2018-01-12T13:11:21.844Z,1.83
2018-01-12T13:13:52.061Z,2.20
2018-01-12T13:16:21.651Z,2.33
2018-01-12T13:18:51.387Z,2.67
2018-01-12T13:21:21.369Z,1.93
2018-01-12T13:23:51.022Z,2.40
2018-01-12T13:26:20.647Z,2.27
2018-01-12T13:28:51.522Z,2.10
2018-01-12T13:31:21.325Z,2.63
2018-01-12T13:33:51.026Z,2.60
2018-01-12T13:36:20.778Z,2.07
2018-01-12T13:38:51.569Z,2.20
2018-01-12T13:41:21.356Z,2.63
2018-01-12T13:43:50.991Z,3.23
2018-01-12T13:46:21.332Z,2.80
2018-01-12T13:48:51.346Z,2.23
2018-01-12T13:51:21.287Z,2.60
2018-01-12T13:53:50.801Z,2.87
2018-01-12T13:56:20.676Z,2.13
2018-01-12T13:58:50.658Z,2.87
2018-01-12T14:01:21.434Z,2.10
2018-01-12T14:03:51.293Z,2.40
2018-01-12T14:06:21.653Z,2.87
2018-01-12T14:08:52.098Z,2.90
2018-01-12T14:11:22.159Z,2.70
2018-01-12T14:13:51.613Z,2.50
2018-01-12T14:16:22.042Z,4.10
2018-01-12T14:18:52.171Z,5.50
2018-01-12T14:21:21.690Z,4.43
2018-01-12T14:23:51.648Z,6.83
2018-01-12T14:26:21.110Z,5.40
2018-01-12T14:28:51.176Z,4.23
2018-01-12T14:31:20.823Z,5.40
2018-01-12T14:33:50.694Z,5.63
2018-01-12T14:36:20.341Z,5.37
2018-01-12T14:38:50.164Z,5.03
2018-01-12T14:41:20.147Z,5.03
2018-01-12T14:43:49.831Z,5.00
2018-01-12T14:46:19.489Z,5.03
2018-01-12T14:48:49.308Z,4.07
2018-01-12T14:51:19.141Z,4.70
2018-01-12T14:53:49.742Z,3.60
2018-01-12T14:56:19.357Z,5.90
2018-01-12T14:58:49.159Z,4.47
2018-01-12T15:01:20.085Z,5.00
2018-01-12T15:03:50.427Z,5.07
2018-01-12T15:06:20.153Z,6.57
2018-01-12T15:08:50.815Z,6.40
2018-01-12T15:11:20.745Z,8.00
2018-01-12T15:13:50.657Z,6.27
2018-01-12T15:16:20.617Z,3.63
2018-01-12T15:18:50.497Z,3.43
2018-01-12T15:21:20.036Z,4.93
2018-01-12T15:23:49.526Z,3.53
2018-01-12T15:26:19.584Z,3.53
2018-01-12T15:28:50.113Z,3.80
2018-01-12T15:31:19.751Z,4.63
2018-01-12T15:33:49.327Z,3.27
2018-01-12T15:36:18.766Z,3.20
2018-01-12T15:38:48.842Z,4.10
2018-01-12T15:41:18.854Z,4.17
2018-01-12T15:43:48.850Z,4.40
2018-01-12T15:48:53.054Z,3.70
2018-01-12T15:51:23.195Z,3.67
2018-01-12T15:53:53.480Z,3.80
2018-01-12T15:56:23.489Z,5.97
2018-01-12T15:58:53.391Z,5.17
2018-01-12T16:01:23.347Z,7.57
2018-01-12T16:03:53.337Z,7.40
2018-01-12T16:06:23.440Z,4.70
2018-01-12T16:08:53.665Z,4.80
2018-01-12T16:11:23.236Z,4.47
2018-01-12T16:13:53.631Z,5.47
2018-01-12T16:16:23.362Z,3.90
2018-01-12T16:18:53.610Z,3.93
2018-01-12T16:21:23.403Z,4.00
2018-01-12T16:23:54.337Z,4.27
2018-01-12T16:26:25.195Z,3.73
2018-01-12T16:29:01.232Z,3.10
2018-01-12T16:31:31.790Z,3.70
2018-01-12T16:34:01.540Z,3.90
2018-01-12T16:36:32.119Z,4.27
2018-01-12T16:39:02.410Z,3.70
2018-01-12T16:41:32.147Z,3.90
2018-01-12T16:44:03.163Z,4.30
2018-01-12T16:46:33.376Z,4.37
2018-01-12T16:49:03.048Z,4.50
2018-01-12T16:51:33.321Z,3.90
2018-01-12T16:54:03.730Z,4.80
2018-01-12T16:56:33.457Z,5.20
2018-01-12T16:59:03.886Z,4.67
2018-01-12T17:01:34.550Z,5.80
2018-01-12T17:04:04.282Z,4.43
2018-01-12T17:06:34.252Z,4.87
2018-01-12T17:09:05.649Z,5.90
2018-01-12T17:11:36.551Z,8.80
2018-01-12T17:14:06.331Z,6.23
2018-01-12T17:16:36.589Z,5.90
2018-01-12T17:19:06.578Z,6.47
2018-01-12T17:21:36.792Z,5.90
2018-01-12T17:24:07.127Z,4.53
2018-01-12T17:26:37.461Z,5.70
2018-01-12T17:29:07.329Z,7.67
2018-01-12T17:31:36.786Z,6.37
2018-01-12T17:34:06.415Z,4.67
2018-01-12T17:36:36.515Z,5.43
2018-01-12T17:39:06.244Z,4.70
2018-01-12T17:41:35.906Z,4.57
2018-01-12T17:44:06.929Z,4.37
2018-01-12T17:46:36.571Z,5.13
2018-01-12T17:49:06.714Z,4.90
2018-01-12T17:51:36.190Z,4.80
2018-01-12T17:54:06.734Z,4.50
2018-01-12T17:56:36.409Z,4.27
2018-01-12T17:59:06.881Z,5.40
2018-01-12T18:01:36.593Z,5.53
2018-01-12T18:04:06.546Z,4.43
2018-01-12T18:06:36.161Z,4.40
2018-01-12T18:09:06.672Z,4.77
2018-01-12T18:11:37.544Z,4.53
2018-01-12T18:14:07.927Z,5.87
2018-01-12T18:16:37.931Z,4.30
2018-01-12T18:19:08.431Z,4.23
2018-01-12T18:21:39.427Z,4.30
2018-01-12T18:24:10.041Z,4.80
2018-01-12T18:26:39.862Z,10.37
2018-01-12T18:29:10.689Z,4.50
2018-01-12T18:31:40.887Z,5.30
2018-01-12T18:34:11.658Z,5.10
2018-01-12T18:36:42.029Z,4.73
2018-01-12T18:39:11.642Z,5.37
2018-01-12T18:41:41.829Z,4.23
2018-01-12T18:44:11.958Z,4.20
2018-01-12T18:46:41.638Z,4.40
2018-01-12T18:49:11.417Z,4.07
2018-01-12T18:51:41.349Z,4.07
2018-01-12T18:54:11.260Z,5.43
2018-01-12T18:56:41.256Z,5.67
2018-01-12T18:59:11.273Z,4.30
2018-01-12T19:01:42.018Z,4.10
2018-01-12T19:04:11.587Z,3.63
2018-01-12T19:06:41.905Z,6.23
2018-01-12T19:09:12.114Z,6.17
2018-01-12T19:11:42.252Z,5.37
2018-01-12T19:14:13.566Z,4.97
2018-01-12T19:16:43.299Z,4.67
2018-01-12T19:19:13.068Z,5.50
2018-01-12T19:21:42.796Z,6.00
2018-01-12T19:24:12.677Z,5.23
2018-01-12T19:26:42.552Z,5.73
2018-01-12T19:29:12.891Z,5.90
2018-01-12T19:31:42.226Z,4.80
2018-01-12T19:34:12.246Z,6.27
2018-01-12T19:36:42.442Z,6.10
2018-01-12T19:39:12.001Z,5.27
2018-01-12T19:41:41.908Z,5.03
2018-01-12T19:44:12.026Z,5.97
2018-01-12T19:46:41.819Z,4.50
2018-01-12T19:49:11.299Z,7.07
2018-01-12T19:51:41.350Z,7.40
2018-01-12T19:54:11.075Z,3.93
2018-01-12T19:56:41.033Z,5.07
2018-01-12T19:59:11.422Z,3.90
2018-01-12T20:01:42.025Z,4.97
2018-01-12T20:04:13.967Z,5.17
2018-01-12T20:06:44.088Z,6.40
2018-01-12T20:09:14.075Z,4.77
2018-01-12T20:11:44.897Z,4.90
2018-01-12T20:14:15.240Z,6.07
2018-01-12T20:16:45.294Z,5.00
2018-01-12T20:19:16.023Z,6.23
2018-01-12T20:21:45.978Z,6.00
2018-01-12T20:24:15.394Z,6.20
2018-01-12T20:26:46.779Z,5.80
2018-01-12T20:29:16.664Z,5.60
2018-01-12T20:31:46.645Z,7.50
2018-01-12T20:34:16.351Z,8.60
2018-01-12T20:36:45.945Z,7.10
2018-01-12T20:39:15.686Z,7.00
2018-01-12T20:41:47.492Z,10.77
2018-01-12T20:44:18.077Z,7.93
2018-01-12T20:46:47.883Z,7.87
2018-01-12T20:49:17.346Z,6.70
2018-01-12T20:51:46.990Z,6.27
2018-01-12T20:54:16.746Z,8.73
2018-01-12T20:56:46.450Z,6.90
2018-01-12T20:59:16.849Z,5.67
2018-01-12T21:01:46.837Z,6.00
2018-01-12T21:04:16.631Z,4.67
2018-01-12T21:06:46.170Z,5.33
2018-01-12T21:09:16.343Z,5.50
2018-01-12T21:11:46.321Z,5.83
2018-01-12T21:14:16.688Z,5.17
2018-01-12T21:16:47.211Z,6.33
2018-01-12T21:19:17.776Z,5.10
2018-01-12T21:21:47.602Z,5.90
2018-01-12T21:24:17.258Z,4.30
2018-01-12T21:26:46.966Z,5.10
2018-01-12T21:29:17.289Z,4.50
2018-01-12T21:31:46.909Z,4.40
2018-01-12T21:34:16.716Z,4.50
2018-01-12T21:36:46.223Z,4.70
2018-01-12T21:39:15.800Z,3.83
2018-01-12T21:41:45.869Z,4.27
2018-01-12T21:44:15.632Z,4.03
2018-01-12T21:46:46.441Z,5.13
2018-01-12T21:49:16.368Z,3.60
2018-01-12T21:51:46.877Z,3.70
2018-01-12T21:54:16.685Z,4.53
2018-01-12T21:56:46.005Z,3.53
2018-01-12T21:59:15.694Z,3.77
2018-01-12T22:01:45.326Z,2.97
2018-01-12T22:04:15.518Z,4.93
2018-01-12T22:06:46.436Z,3.67
2018-01-12T22:09:16.295Z,3.23
2018-01-12T22:11:46.121Z,3.80
2018-01-12T22:14:15.959Z,3.37
2018-01-12T22:16:46.592Z,3.77
2018-01-12T22:19:17.034Z,3.33
2018-01-12T22:21:47.422Z,3.90
2018-01-12T22:24:17.081Z,3.47
2018-01-12T22:26:46.656Z,3.20
2018-01-12T22:29:16.594Z,3.43
2018-01-12T22:31:46.540Z,3.47
2018-01-12T22:34:16.460Z,2.60
2018-01-12T22:36:46.202Z,3.10
2018-01-12T22:39:16.015Z,3.00
2018-01-12T22:41:47.526Z,1.90
2018-01-12T22:44:17.090Z,2.23
2018-01-12T22:46:46.747Z,2.23
2018-01-12T22:49:16.336Z,2.13
2018-01-12T22:51:47.523Z,3.17
2018-01-12T22:54:17.148Z,3.20
2018-01-12T22:56:46.694Z,4.70
2018-01-12T22:59:16.276Z,3.77
2018-01-12T23:01:46.060Z,3.10
2018-01-12T23:04:17.325Z,3.47
2018-01-12T23:06:47.380Z,2.93
2018-01-12T23:09:16.617Z,3.13
2018-01-12T23:11:46.910Z,3.70
2018-01-12T23:14:16.968Z,4.50
2018-01-12T23:16:46.797Z,3.37
2018-01-12T23:19:16.334Z,2.90
2018-01-12T23:21:46.563Z,2.40
2018-01-12T23:24:16.290Z,3.07
2018-01-12T23:26:46.242Z,5.67
2018-01-12T23:29:16.421Z,5.43
2018-01-12T23:31:48.255Z,3.87
2018-01-12T23:34:18.932Z,5.27
2018-01-12T23:36:48.695Z,4.20
2018-01-12T23:39:18.707Z,3.97
2018-01-12T23:41:49.784Z,4.63
2018-01-12T23:44:19.330Z,4.23
2018-01-12T23:46:49.753Z,4.33
2018-01-12T23:49:19.580Z,5.03
2018-01-12T23:51:49.974Z,3.90
2018-01-12T23:54:19.847Z,3.43
2018-01-12T23:56:49.408Z,2.97
2018-01-12T23:59:19.200Z,3.20
